Rockfall, Connecticut
Current Conditions -  °F | °C
As of 10:53 PM on Saturday 25 Oct 2014 (Local Time) from KMMK Reporting Station
Overcast Overcast  
Wind Chill: 52°   Ceiling: 6500
Heat Index: 52°   Visibility: 8mi
Dew Point: 48°   Wind: 0mph
Humidity: 86%   Direction: NA
Pressure: 29.56"   Gusts: NA
Location:  41.53°N, 72.7°W
Report Text: KMMK 260253Z AUTO 00000KT 8SM BKN065 OVC090 11/09 A2956 RMK AO2 SLP011 T01110089 56016 TSNO
Loading
Personal Weather Stations






























Interactive Weather Map
Tropical Storm Tracking
New forecast layout! Learn more

10-Day Weather Forecast

Advertisements
Track Severe Weather on mobile